createdAt,value
2023-04-09T00:00:00.819Z,50349.98
2023-04-09T00:02:29.656Z,50340.38
2023-04-09T00:04:58.013Z,50326.78
2023-04-09T00:07:26.277Z,50335.58
2023-04-09T00:09:54.450Z,50339.18
2023-04-09T00:12:22.682Z,50341.18
2023-04-09T00:14:50.928Z,50335.57
2023-04-09T00:17:19.256Z,50347.18
2023-04-09T00:19:48.615Z,50319.59
2023-04-09T00:22:19.004Z,50327.58
2023-04-09T00:24:47.456Z,50353.98
2023-04-09T00:27:16.514Z,50338.77
2023-04-09T00:29:45.500Z,50328.38
2023-04-09T00:32:13.946Z,50328.78
2023-04-09T00:34:42.321Z,50364.38
2023-04-09T00:37:10.556Z,50334.77
2023-04-09T00:39:38.779Z,50348.77
2023-04-09T00:42:07.168Z,50333.98
2023-04-09T00:44:36.324Z,50343.18
2023-04-09T00:47:04.847Z,50335.18
2023-04-09T00:49:33.951Z,50335.18
2023-04-09T00:52:02.414Z,50335.58
2023-04-09T00:54:31.167Z,50335.58
2023-04-09T00:56:59.754Z,50338.38
2023-04-09T00:59:28.839Z,50347.18
2023-04-09T01:01:57.130Z,50331.58
2023-04-09T01:04:26.799Z,50323.58
2023-04-09T01:07:20.965Z,50351.18
2023-04-09T01:10:01.067Z,50336.78
2023-04-09T01:12:37.334Z,50329.98
2023-04-09T01:15:16.335Z,50359.57
2023-04-09T01:17:53.507Z,50333.98
2023-04-09T01:20:33.599Z,50350.77
2023-04-09T01:23:18.191Z,50344.77
2023-04-09T01:26:04.124Z,50340.78
2023-04-09T01:28:49.241Z,50345.18
2023-04-09T01:31:19.225Z,50343.18
2023-04-09T01:33:48.205Z,50337.18
2023-04-09T01:36:17.510Z,50339.18
2023-04-09T01:38:48.029Z,50322.79
2023-04-09T01:41:19.609Z,50348.77
2023-04-09T01:43:51.038Z,50353.17
2023-04-09T01:46:21.647Z,50332.38
2023-04-09T01:48:55.893Z,50350.77
2023-04-09T01:51:24.454Z,50353.57
2023-04-09T01:53:52.890Z,50339.58
2023-04-09T01:56:21.789Z,50353.57
2023-04-09T01:58:51.212Z,50360.77
2023-04-09T02:01:37.037Z,50350.37
2023-04-09T02:04:13.171Z,50334.78
2023-04-09T02:06:54.165Z,50353.18
2023-04-09T02:09:25.097Z,50342.38
2023-04-09T02:11:54.159Z,50351.57
2023-04-09T02:14:25.271Z,50357.57
2023-04-09T02:16:53.675Z,50351.18
2023-04-09T02:19:22.006Z,50363.57
2023-04-09T02:21:51.491Z,50349.98
2023-04-09T02:24:19.728Z,50331.18
2023-04-09T02:26:48.758Z,50358.37
2023-04-09T02:29:16.967Z,50338.38
2023-04-09T02:31:45.437Z,50359.57
2023-04-09T02:34:13.786Z,50358.77
2023-04-09T02:36:42.003Z,50344.38
2023-04-09T02:39:10.306Z,50347.98
2023-04-09T02:41:38.539Z,50342.38
2023-04-09T02:44:06.748Z,50353.98
2023-04-09T02:46:34.983Z,50346.77
2023-04-09T02:49:04.083Z,50337.98
2023-04-09T02:51:34.327Z,50346.38
2023-04-09T02:54:03.639Z,50342.77
2023-04-09T02:56:31.927Z,50350.77
2023-04-09T02:59:00.323Z,50357.17
2023-04-09T03:01:29.106Z,50346.38
2023-04-09T03:03:57.632Z,50349.57
2023-04-09T03:06:26.744Z,50353.98
2023-04-09T03:08:55.017Z,50353.57
2023-04-09T03:11:24.206Z,50356.37
2023-04-09T03:13:52.497Z,50341.98
2023-04-09T03:16:21.911Z,50337.98
2023-04-09T03:18:51.426Z,50349.18
2023-04-09T03:21:19.837Z,50344.77
2023-04-09T03:23:49.562Z,50367.97
2023-04-09T03:26:19.463Z,50344.77
2023-04-09T03:28:50.169Z,50339.98
2023-04-09T03:31:18.752Z,50337.98
2023-04-09T03:33:47.622Z,50334.78
2023-04-09T03:36:16.165Z,50337.98
2023-04-09T03:39:04.588Z,50338.38
2023-04-09T03:41:38.198Z,50329.98
2023-04-09T03:44:10.128Z,50330.38
2023-04-09T03:46:58.719Z,50326.79
2023-04-09T03:49:27.336Z,50338.38
2023-04-09T03:52:00.031Z,50332.38
2023-04-09T03:54:35.580Z,50313.99
2023-04-09T03:57:06.840Z,50319.59
2023-04-09T03:59:36.045Z,50336.38
2023-04-09T04:02:04.360Z,50339.98
2023-04-09T04:04:34.142Z,50335.58
2023-04-09T04:07:09.033Z,50341.57
2023-04-09T04:09:42.754Z,50358.77
2023-04-09T04:12:16.256Z,50335.98
2023-04-09T04:15:06.937Z,50333.18
2023-04-09T04:17:39.923Z,50320.39
2023-04-09T04:20:15.116Z,50340.77
2023-04-09T04:22:54.020Z,50337.98
2023-04-09T04:25:25.445Z,50325.58
2023-04-09T04:27:55.108Z,50344.38
2023-04-09T04:30:26.217Z,50331.58
2023-04-09T04:33:01.248Z,50326.79
2023-04-09T04:35:31.791Z,50343.98
2023-04-09T04:38:01.702Z,50332.38
2023-04-09T04:40:30.374Z,50341.18
2023-04-09T04:43:01.657Z,50336.38
2023-04-09T04:45:30.708Z,50330.38
2023-04-09T04:48:04.882Z,50333.58
2023-04-09T04:50:33.202Z,50332.78
2023-04-09T04:53:05.579Z,50321.98
2023-04-09T04:55:40.078Z,50337.58
2023-04-09T04:58:09.453Z,50319.58
2023-04-09T05:00:49.973Z,50319.18
2023-04-09T05:03:18.415Z,50304.39
2023-04-09T05:06:06.168Z,50321.98
2023-04-09T05:08:41.819Z,50316.79
2023-04-09T05:11:16.705Z,50312.39
2023-04-09T05:13:46.518Z,50303.99
2023-04-09T05:16:20.574Z,50296.39
2023-04-09T05:18:54.073Z,50317.98
2023-04-09T05:21:22.770Z,50279.20
2023-04-09T05:23:56.012Z,50294.79
2023-04-09T05:26:24.325Z,50296.39
2023-04-09T05:28:56.630Z,50312.79
2023-04-09T05:31:25.256Z,50304.39
2023-04-09T05:34:12.650Z,50299.19
2023-04-09T05:36:48.953Z,50289.59
2023-04-09T05:39:17.344Z,50293.99
2023-04-09T05:41:46.890Z,50303.99
2023-04-09T05:44:34.737Z,50298.39
2023-04-09T05:47:08.273Z,50286.39
2023-04-09T05:49:48.090Z,50272.80
2023-04-09T05:52:17.990Z,50270.00
2023-04-09T05:54:47.213Z,50262.01
2023-04-09T05:57:18.445Z,50278.00
2023-04-09T05:59:52.337Z,50267.60
2023-04-09T06:02:25.841Z,50270.40
2023-04-09T06:04:55.856Z,50271.60
2023-04-09T06:07:24.358Z,50254.41
2023-04-09T06:09:52.591Z,50255.21
2023-04-09T06:12:21.122Z,50257.61
2023-04-09T06:14:50.240Z,50246.80
2023-04-09T06:17:19.647Z,50258.01
2023-04-09T06:19:50.955Z,50232.81
2023-04-09T06:22:19.357Z,50243.21
2023-04-09T06:24:48.120Z,50252.00
2023-04-09T06:27:19.284Z,50238.41
2023-04-09T06:29:50.303Z,50227.62
2023-04-09T06:32:19.560Z,50241.21
2023-04-09T06:34:48.558Z,50215.21
2023-04-09T06:37:16.894Z,50221.62
2023-04-09T06:39:54.185Z,50222.82
2023-04-09T06:42:28.548Z,50212.42
2023-04-09T06:45:10.766Z,50231.21
2023-04-09T06:47:39.090Z,50216.82
2023-04-09T06:50:08.672Z,50226.41
2023-04-09T06:52:37.265Z,50204.42
2023-04-09T06:55:11.838Z,50208.82
2023-04-09T06:57:41.733Z,50207.22
2023-04-09T07:00:10.902Z,50208.82
2023-04-09T07:02:39.758Z,50212.82
2023-04-09T07:05:11.858Z,50202.42
2023-04-09T07:07:40.628Z,50215.62
2023-04-09T07:10:10.825Z,50210.82
2023-04-09T07:12:39.180Z,50222.82
2023-04-09T07:15:09.443Z,50217.62
2023-04-09T07:17:39.902Z,50207.22
2023-04-09T07:20:08.691Z,50209.22
2023-04-09T07:22:36.908Z,50214.82
2023-04-09T07:25:07.002Z,50219.22
2023-04-09T07:27:35.603Z,50216.82
2023-04-09T07:30:06.828Z,50207.22
2023-04-09T07:32:34.982Z,50180.43
2023-04-09T07:35:05.202Z,50207.22
2023-04-09T07:37:33.546Z,50188.82
2023-04-09T07:40:04.356Z,50184.82
2023-04-09T07:42:33.703Z,50189.23
2023-04-09T07:45:03.564Z,50197.23
2023-04-09T07:47:33.960Z,50189.23
2023-04-09T07:50:02.564Z,50189.23
2023-04-09T07:52:33.528Z,50196.43
2023-04-09T07:55:01.956Z,50189.23
2023-04-09T07:57:33.859Z,50208.82
2023-04-09T08:00:02.668Z,50200.82
2023-04-09T08:02:42.202Z,50204.43
2023-04-09T08:05:10.947Z,50191.23
2023-04-09T08:07:39.854Z,50193.23
2023-04-09T08:10:14.335Z,50199.62
2023-04-09T08:12:48.069Z,50193.23
2023-04-09T08:15:16.523Z,50202.82
2023-04-09T08:17:46.561Z,50204.02
2023-04-09T08:20:17.443Z,50199.63
2023-04-09T08:22:45.910Z,50201.62
2023-04-09T08:25:14.126Z,50204.82
2023-04-09T08:27:43.398Z,50190.02
2023-04-09T08:30:12.349Z,50214.41
2023-04-09T08:32:40.872Z,50210.02
2023-04-09T08:35:09.980Z,50189.23
2023-04-09T08:37:40.153Z,50200.43
2023-04-09T08:40:09.612Z,50214.02
2023-04-09T08:42:46.122Z,50210.82
2023-04-09T08:45:14.525Z,50200.02
2023-04-09T08:47:46.248Z,50212.42
2023-04-09T08:50:15.724Z,50203.23
2023-04-09T08:52:48.466Z,50200.02
2023-04-09T08:55:17.007Z,50186.43
2023-04-09T08:57:45.420Z,50207.62
2023-04-09T09:00:14.104Z,50203.62
2023-04-09T09:03:06.745Z,50204.82
2023-04-09T09:05:43.006Z,50223.21
2023-04-09T09:08:15.754Z,50203.22
2023-04-09T09:10:46.212Z,50188.82
2023-04-09T09:13:20.215Z,50187.23
2023-04-09T09:15:53.141Z,50214.02
2023-04-09T09:18:38.293Z,50203.22
2023-04-09T09:21:17.895Z,50214.82
2023-04-09T09:23:48.561Z,50200.02
2023-04-09T09:26:25.678Z,50193.63
2023-04-09T09:28:55.030Z,50202.43
2023-04-09T09:31:23.991Z,50199.23
2023-04-09T09:33:53.575Z,50202.02
2023-04-09T09:36:35.736Z,50199.63
2023-04-09T09:39:05.592Z,50213.62
2023-04-09T09:41:33.994Z,50210.02
2023-04-09T09:44:04.709Z,50191.63
2023-04-09T09:46:42.792Z,50195.63
2023-04-09T09:49:11.612Z,50210.82
2023-04-09T09:51:41.656Z,50204.82
2023-04-09T09:54:17.942Z,50216.41
2023-04-09T09:56:54.043Z,50186.83
2023-04-09T09:59:32.256Z,50214.82
2023-04-09T10:02:06.350Z,50208.02
2023-04-09T10:04:36.289Z,50195.63
2023-04-09T10:07:07.740Z,50204.82
2023-04-09T10:09:41.730Z,50200.82
2023-04-09T10:12:12.405Z,50218.82
2023-04-09T10:14:42.446Z,50186.43
2023-04-09T10:17:11.702Z,50203.62
2023-04-09T10:19:47.945Z,50195.23
2023-04-09T10:22:20.560Z,50197.23
2023-04-09T10:24:50.110Z,50191.63
2023-04-09T10:27:19.689Z,50202.43
2023-04-09T10:29:53.305Z,50204.42
2023-04-09T10:32:26.592Z,50188.82
2023-04-09T10:35:01.920Z,50196.02
2023-04-09T10:37:32.098Z,50194.43
2023-04-09T10:40:04.237Z,50201.23
2023-04-09T10:42:37.452Z,50215.22
2023-04-09T10:45:15.400Z,50220.41
2023-04-09T10:47:46.556Z,50207.62
2023-04-09T10:50:24.099Z,50204.82
2023-04-09T10:52:59.756Z,50201.22
2023-04-09T10:55:42.127Z,50218.42
2023-04-09T10:58:13.563Z,50211.62
2023-04-09T11:00:48.846Z,50196.43
2023-04-09T11:03:42.776Z,50190.02
2023-04-09T11:06:12.268Z,50202.42
2023-04-09T11:08:41.857Z,50186.03
2023-04-09T11:11:14.603Z,50180.83
2023-04-09T11:13:45.806Z,50192.43
2023-04-09T11:16:23.258Z,50190.03
2023-04-09T11:18:56.310Z,50201.22
2023-04-09T11:21:31.595Z,50182.03
2023-04-09T11:24:00.167Z,50188.43
2023-04-09T11:26:37.933Z,50191.23
2023-04-09T11:29:09.734Z,50179.23
2023-04-09T11:31:38.124Z,50191.63
2023-04-09T11:34:13.036Z,50191.23
2023-04-09T11:36:42.080Z,50187.23
2023-04-09T11:39:12.009Z,50187.23
2023-04-09T11:41:41.035Z,50186.43
2023-04-09T11:44:09.353Z,50177.23
2023-04-09T11:46:40.152Z,50188.83
2023-04-09T11:49:10.431Z,50169.24
2023-04-09T11:51:40.090Z,50179.63
2023-04-09T11:54:08.982Z,50194.02
2023-04-09T11:56:37.761Z,50169.23
2023-04-09T11:59:06.668Z,50178.03
2023-04-09T12:01:35.544Z,50177.63
2023-04-09T12:04:05.890Z,50173.23
2023-04-09T12:06:40.539Z,50178.03
2023-04-09T12:09:13.806Z,50156.04
2023-04-09T12:11:47.134Z,50178.43
2023-04-09T12:14:18.963Z,50178.43
2023-04-09T12:16:51.799Z,50174.04
2023-04-09T12:19:25.575Z,50178.03
2023-04-09T12:21:58.713Z,50172.43
2023-04-09T12:24:29.849Z,50176.83
2023-04-09T12:26:58.135Z,50172.83
2023-04-09T12:29:27.190Z,50169.63
2023-04-09T12:31:55.664Z,50172.44
2023-04-09T12:34:24.569Z,50174.03
2023-04-09T12:36:52.878Z,50177.63
2023-04-09T12:39:21.565Z,50183.23
2023-04-09T12:41:49.974Z,50168.03
2023-04-09T12:44:18.239Z,50183.23
2023-04-09T12:46:46.499Z,50177.23
2023-04-09T12:49:16.332Z,50178.43
2023-04-09T12:51:44.983Z,50148.84
2023-04-09T12:54:13.392Z,50181.63
2023-04-09T12:56:45.572Z,50178.43
2023-04-09T12:59:18.993Z,50170.84
2023-04-09T13:01:47.440Z,50164.44
2023-04-09T13:04:16.666Z,50155.64
2023-04-09T13:09:51.670Z,50155.64
2023-04-09T13:12:21.787Z,50160.44
2023-04-09T13:14:54.081Z,50146.84
2023-04-09T13:17:23.988Z,50149.64
2023-04-09T13:19:52.878Z,50162.44
2023-04-09T13:22:21.705Z,50149.24
2023-04-09T13:24:51.126Z,50152.84
2023-04-09T13:27:19.544Z,50164.04
2023-04-09T13:29:47.895Z,50163.64
2023-04-09T13:32:18.667Z,50162.04
2023-04-09T13:34:47.044Z,50160.04
2023-04-09T13:37:15.931Z,50149.64
2023-04-09T13:39:46.384Z,50173.63
2023-04-09T13:42:16.295Z,50177.63
2023-04-09T13:44:47.288Z,50157.64
2023-04-09T13:47:17.903Z,50158.04
2023-04-09T13:49:46.326Z,50170.43
2023-04-09T13:52:15.755Z,50156.84
2023-04-09T13:54:44.700Z,50165.24
2023-04-09T13:57:12.967Z,50170.43
2023-04-09T13:59:47.262Z,50158.84
2023-04-09T14:02:15.762Z,50173.24
2023-04-09T14:04:45.604Z,50146.04
2023-04-09T14:07:13.909Z,50154.44
2023-04-09T14:09:43.325Z,50149.24
2023-04-09T14:12:14.218Z,50164.43
2023-04-09T14:14:44.242Z,50166.44
2023-04-09T14:17:12.875Z,50174.03
2023-04-09T14:19:41.240Z,50144.84
2023-04-09T14:22:10.557Z,50156.84
2023-04-09T14:24:40.286Z,50160.44
2023-04-09T14:27:11.263Z,50166.04
2023-04-09T14:29:39.789Z,50172.84
2023-04-09T14:32:09.401Z,50172.84
2023-04-09T14:34:39.108Z,50165.24
2023-04-09T14:37:08.729Z,50166.44
2023-04-09T14:39:37.937Z,50162.44
2023-04-09T14:42:06.556Z,50169.63
2023-04-09T14:44:36.974Z,50170.04
2023-04-09T14:47:05.960Z,50172.43
2023-04-09T14:49:34.489Z,50156.44
2023-04-09T14:52:02.987Z,50167.63
2023-04-09T14:54:32.453Z,50164.43
2023-04-09T14:57:03.680Z,50158.44
2023-04-09T14:59:32.464Z,50174.84
2023-04-09T15:02:01.744Z,50176.43
2023-04-09T15:04:30.190Z,50177.23
2023-04-09T15:06:58.532Z,50168.44
2023-04-09T15:09:27.270Z,50189.63
2023-04-09T15:11:57.204Z,50190.43
2023-04-09T15:14:31.049Z,50196.02
2023-04-09T15:16:59.417Z,50198.82
2023-04-09T15:19:27.883Z,50206.02
2023-04-09T15:21:56.804Z,50197.23
2023-04-09T15:24:25.611Z,50198.82
2023-04-09T15:26:57.042Z,50205.22
2023-04-09T15:29:26.313Z,50207.22
2023-04-09T15:31:54.652Z,50200.02
2023-04-09T15:34:23.501Z,50195.63
2023-04-09T15:36:52.732Z,50211.62
2023-04-09T15:39:24.756Z,50198.82
2023-04-09T15:41:58.452Z,50194.43
2023-04-09T15:44:39.646Z,50187.63
2023-04-09T15:47:19.526Z,50203.63
2023-04-09T15:49:47.763Z,50188.43
2023-04-09T15:52:16.219Z,50183.23
2023-04-09T15:54:47.150Z,50196.43
2023-04-09T15:57:15.749Z,50190.02
2023-04-09T15:59:47.186Z,50198.43
2023-04-09T16:02:15.637Z,50190.82
2023-04-09T16:04:43.957Z,50178.83
2023-04-09T16:07:16.331Z,50184.43
2023-04-09T16:09:46.280Z,50194.82
2023-04-09T16:12:14.869Z,50184.43
2023-04-09T16:14:43.815Z,50185.23
2023-04-09T16:17:12.079Z,50186.82
2023-04-09T16:19:42.181Z,50186.03
2023-04-09T16:22:12.238Z,50191.23
2023-04-09T16:24:40.690Z,50189.63
2023-04-09T16:27:08.974Z,50196.43
2023-04-09T16:29:38.347Z,50203.63
2023-04-09T16:32:06.766Z,50208.42
2023-04-09T16:34:36.737Z,50219.62
2023-04-09T16:37:08.040Z,50217.62
2023-04-09T16:39:36.921Z,50201.63
2023-04-09T16:42:05.170Z,50216.82
2023-04-09T16:44:33.380Z,50215.62
2023-04-09T16:47:02.873Z,50228.41
2023-04-09T16:49:32.874Z,50218.82
2023-04-09T16:52:02.088Z,50211.22
2023-04-09T16:54:31.093Z,50235.61
2023-04-09T16:56:59.866Z,50241.61
2023-04-09T16:59:28.338Z,50224.41
2023-04-09T17:01:56.842Z,50228.01
2023-04-09T17:04:25.734Z,50231.61
2023-04-09T17:06:54.241Z,50227.21
2023-04-09T17:09:22.570Z,50255.61
2023-04-09T17:11:53.171Z,50240.81
2023-04-09T17:14:21.597Z,50250.01
2023-04-09T17:16:52.998Z,50242.01
2023-04-09T17:19:22.523Z,50237.21
2023-04-09T17:21:51.093Z,50246.41
2023-04-09T17:24:19.447Z,50250.01
2023-04-09T17:26:47.664Z,50248.80
2023-04-09T17:29:17.815Z,50254.01
2023-04-09T17:31:50.854Z,50260.01
2023-04-09T17:34:24.487Z,50242.01
2023-04-09T17:36:57.440Z,50256.01
2023-04-09T17:39:26.567Z,50248.80
2023-04-09T17:41:57.394Z,50256.41
2023-04-09T17:44:27.147Z,50252.80
2023-04-09T17:47:04.261Z,50250.01
2023-04-09T17:49:35.669Z,50261.60
2023-04-09T17:52:03.983Z,50252.80
2023-04-09T17:54:34.691Z,50246.41
2023-04-09T17:57:04.800Z,50252.80
2023-04-09T17:59:39.861Z,50259.20
2023-04-09T18:02:09.907Z,50248.01
2023-04-09T18:04:38.937Z,50251.21
2023-04-09T18:07:08.070Z,50244.41
2023-04-09T18:09:40.585Z,50246.41
2023-04-09T18:12:12.188Z,50258.00
2023-04-09T18:14:44.394Z,50235.61
2023-04-09T18:17:14.628Z,50260.00
2023-04-09T18:19:46.039Z,50264.00
2023-04-09T18:22:14.386Z,50254.01
2023-04-09T18:24:42.758Z,50268.00
2023-04-09T18:27:13.416Z,50245.61
2023-04-09T18:29:42.252Z,50261.60
2023-04-09T18:32:10.506Z,50268.00
2023-04-09T18:34:40.773Z,50247.21
2023-04-09T18:37:09.183Z,50268.40
2023-04-09T18:39:37.864Z,50248.01
2023-04-09T18:42:06.173Z,50248.01
2023-04-09T18:44:37.462Z,50250.80
2023-04-09T18:47:09.362Z,50261.20
2023-04-09T18:49:39.699Z,50244.01
2023-04-09T18:52:11.831Z,50258.40
2023-04-09T18:54:42.193Z,50252.80
2023-04-09T18:57:14.147Z,50262.80
2023-04-09T18:59:45.795Z,50258.41
2023-04-09T19:02:14.416Z,50264.00
2023-04-09T19:04:42.979Z,50270.00
2023-04-09T19:07:11.394Z,50250.80
2023-04-09T19:09:43.693Z,50262.40
2023-04-09T19:12:19.523Z,50244.80
2023-04-09T19:14:47.827Z,50252.41
2023-04-09T19:17:16.551Z,50252.01
2023-04-09T19:19:45.234Z,50270.00
2023-04-09T19:22:14.470Z,50265.61
2023-04-09T19:24:45.830Z,50264.40
2023-04-09T19:27:14.238Z,50260.40
2023-04-09T19:29:45.024Z,50264.00
2023-04-09T19:32:13.526Z,50259.21
2023-04-09T19:34:43.009Z,50266.80
2023-04-09T19:37:11.982Z,50256.80
2023-04-09T19:39:43.048Z,50254.80
2023-04-09T19:42:11.363Z,50253.21
2023-04-09T19:44:39.867Z,50267.20
2023-04-09T19:47:08.140Z,50262.80
2023-04-09T19:49:37.467Z,50242.01
2023-04-09T19:52:07.310Z,50250.41
2023-04-09T19:54:35.852Z,50255.21
2023-04-09T19:57:11.628Z,50272.80
2023-04-09T19:59:43.285Z,50255.60
2023-04-09T20:02:11.609Z,50253.61
2023-04-09T20:04:40.784Z,50258.41
2023-04-09T20:07:09.046Z,50260.80
2023-04-09T20:09:41.456Z,50254.41
2023-04-09T20:12:10.625Z,50257.20
2023-04-09T20:14:53.864Z,50256.40
2023-04-09T20:17:22.543Z,50255.20
2023-04-09T20:19:55.586Z,50260.80
2023-04-09T20:22:24.080Z,50257.20
2023-04-09T20:24:59.583Z,50257.60
2023-04-09T20:27:28.375Z,50258.80
2023-04-09T20:29:56.622Z,50252.01
2023-04-09T20:32:25.075Z,50272.00
2023-04-09T20:34:53.482Z,50252.01
2023-04-09T20:37:22.449Z,50268.40
2023-04-09T20:39:50.915Z,50259.61
2023-04-09T20:42:19.636Z,50258.80
2023-04-09T20:44:47.862Z,50262.40
2023-04-09T20:47:16.558Z,50271.60
2023-04-09T20:49:46.774Z,50270.00
2023-04-09T20:52:15.513Z,50264.80
2023-04-09T20:54:44.848Z,50270.00
2023-04-09T20:57:13.992Z,50277.20
2023-04-09T20:59:42.500Z,50276.80
2023-04-09T21:02:13.131Z,50254.80
2023-04-09T21:04:41.481Z,50281.59
2023-04-09T21:07:09.707Z,50262.41
2023-04-09T21:09:38.831Z,50262.41
2023-04-09T21:12:07.376Z,50263.60
2023-04-09T21:14:35.676Z,50263.61
2023-04-09T21:17:04.057Z,50265.60
2023-04-09T21:19:32.302Z,50265.20
2023-04-09T21:22:00.557Z,50276.80
2023-04-09T21:24:28.838Z,50259.60
2023-04-09T21:26:58.914Z,50276.40
2023-04-09T21:29:28.439Z,50265.20
2023-04-09T21:31:56.765Z,50273.60
2023-04-09T21:34:25.021Z,50274.40
2023-04-09T21:36:55.604Z,50271.20
2023-04-09T21:39:24.251Z,50277.20
2023-04-09T21:41:54.112Z,50285.20
2023-04-09T21:44:22.316Z,50263.60
2023-04-09T21:46:50.500Z,50297.99
2023-04-09T21:49:18.674Z,50287.20
2023-04-09T21:51:47.218Z,50288.39
2023-04-09T21:54:15.469Z,50290.39
2023-04-09T21:56:43.813Z,50294.39
2023-04-09T21:59:12.032Z,50287.99
2023-04-09T22:01:40.250Z,50296.79
2023-04-09T22:04:09.780Z,50281.20
2023-04-09T22:06:38.116Z,50274.40
2023-04-09T22:09:06.450Z,50286.39
2023-04-09T22:11:34.703Z,50279.60
2023-04-09T22:14:02.976Z,50296.79
2023-04-09T22:16:31.205Z,50276.80
2023-04-09T22:18:59.574Z,50287.60
2023-04-09T22:21:28.001Z,50297.99
2023-04-09T22:23:56.408Z,50270.40
2023-04-09T22:26:27.856Z,50275.60
2023-04-09T22:28:56.481Z,50288.00
2023-04-09T22:31:27.468Z,50275.20
2023-04-09T22:33:56.073Z,50280.40
2023-04-09T22:36:25.034Z,50284.39
2023-04-09T22:38:53.421Z,50284.39
2023-04-09T22:41:22.960Z,50262.01
2023-04-09T22:43:52.588Z,50305.99
2023-04-09T22:46:21.570Z,50303.99
2023-04-09T22:48:50.235Z,50282.39
2023-04-09T22:51:18.560Z,50277.60
2023-04-09T22:53:47.153Z,50286.39
2023-04-09T22:56:15.314Z,50273.60
2023-04-09T22:58:43.529Z,50293.20
2023-04-09T23:01:11.867Z,50298.39
2023-04-09T23:03:40.125Z,50282.40
2023-04-09T23:06:09.102Z,50287.20
2023-04-09T23:08:38.739Z,50284.39
2023-04-09T23:11:08.932Z,50304.79
2023-04-09T23:13:38.951Z,50285.59
2023-04-09T23:16:08.618Z,50306.79
2023-04-09T23:18:37.622Z,50297.59
2023-04-09T23:21:10.744Z,50280.40
2023-04-09T23:23:39.521Z,50303.99
2023-04-09T23:26:08.086Z,50301.19
2023-04-09T23:28:36.234Z,50307.99
2023-04-09T23:31:04.727Z,50287.59
2023-04-09T23:33:33.539Z,50311.59
2023-04-09T23:36:01.735Z,50288.79
2023-04-09T23:38:29.996Z,50307.59
2023-04-09T23:40:58.805Z,50299.99
2023-04-09T23:43:26.971Z,50310.79
2023-04-09T23:45:55.657Z,50292.00
2023-04-09T23:48:23.907Z,50306.39
2023-04-09T23:50:52.099Z,50292.00
2023-04-09T23:53:20.397Z,50306.39
2023-04-09T23:55:50.266Z,50299.59
2023-04-09T23:58:19.065Z,50294.79
